Mekong — WDE6357 — position and weather

sailwx.info

Track history (hours):
 
Tides and Currents Weather Stations Pressure Air Temp Water Temp Dewpoint Dewpoint Depression Visibility Wind Speed Wind Dir Waves Ship Positions

Mekong

Owner: Rubys LLC, North Plainfield, NJ. More information available from US FCC via Universal Licensing System and Coast Guard Vessel Documentation Center.

Last reported at 2015-Jun-19 11:33 UTC. Time now 2015-Jun-30 09:59 UTC.
Position N 39°26' W 074°13'.
Warning: this ship's position is 10 days out of date.

Length 26 m.

Type: Pollution control. MMSI: 367379210.

Date/timePositionNaut miles runAvg speedWind from/ knotsBaromVisibWave heightAir tempDewpointWater temp
2015-Jun-19 11:33N 39°26' W 074°13'9 8.8
2015-Jun-19 10:33N 39°31' W 074°04'83 8.9
2015-Jun-19 01:16N 40°25' W 072°42'6 8.8
2015-Jun-19 00:33N 40°29' W 072°36'9 9.1
2015-Jun-18 23:33N 40°35' W 072°27'9 9.0
2015-Jun-18 22:33N 40°42' W 072°18'9 9.1
2015-Jun-18 21:33N 40°47' W 072°09'9 9.4
2015-Jun-18 20:33N 40°53' W 071°60'10 9.7
2015-Jun-18 19:33N 41°00' W 071°50'9 9.4
2015-Jun-18 18:33N 41°07' W 071°42'9 8.9
2015-Jun-18 17:33N 41°15' W 071°36'  
Track history (hours):
 
Tides and Currents Weather Stations Pressure Air Temp Water Temp Dewpoint Dewpoint Depression Visibility Wind Speed Wind Dir Waves Ship Positions

Mekong

Owner: Rubys LLC, North Plainfield, NJ. More information available from US FCC via Universal Licensing System and Coast Guard Vessel Documentation Center.

Last reported at 2015-Jun-19 11:33 UTC. Time now 2015-Jun-30 09:59 UTC.
Position N 39°26' W 074°13'.
Warning: this ship's position is 10 days out of date.

Length 26 m.

Type: Pollution control. MMSI: 367379210.

Date/timePositionNaut miles runAvg speedWind from/ knotsBaromVisibWave heightAir tempDewpointWater temp
2015-Jun-19 11:33N 39°26' W 074°13'9 8.8
2015-Jun-19 10:33N 39°31' W 074°04'83 8.9
2015-Jun-19 01:16N 40°25' W 072°42'6 8.8
2015-Jun-19 00:33N 40°29' W 072°36'9 9.1
2015-Jun-18 23:33N 40°35' W 072°27'9 9.0
2015-Jun-18 22:33N 40°42' W 072°18'9 9.1
2015-Jun-18 21:33N 40°47' W 072°09'9 9.4
2015-Jun-18 20:33N 40°53' W 071°60'10 9.7
2015-Jun-18 19:33N 41°00' W 071°50'9 9.4
2015-Jun-18 18:33N 41°07' W 071°42'9 8.9
2015-Jun-18 17:33N 41°15' W 071°36'  

Dump ship's entire track history